createdAt,value
2022-12-14T00:02:56.858Z,14.07
2022-12-14T00:05:59.612Z,14.93
2022-12-14T00:09:05.841Z,18.17
2022-12-14T00:12:10.114Z,17.53
2022-12-14T00:15:13.196Z,10.90
2022-12-14T00:18:22.497Z,14.70
2022-12-14T00:21:26.241Z,16.93
2022-12-14T00:24:33.654Z,19.10
2022-12-14T00:27:36.679Z,19.30
2022-12-14T00:30:39.444Z,12.87
2022-12-14T00:33:46.809Z,13.97
2022-12-14T00:36:49.522Z,18.20
2022-12-14T00:39:56.174Z,20.93
2022-12-14T00:42:58.892Z,18.63
2022-12-14T00:46:08.490Z,17.97
2022-12-14T00:49:11.685Z,17.40
2022-12-14T00:52:14.574Z,13.10
2022-12-14T00:55:18.651Z,11.30
2022-12-14T00:58:23.267Z,14.83
2022-12-14T01:01:26.690Z,25.57
2022-12-14T01:04:32.792Z,16.17
2022-12-14T01:07:37.378Z,26.77
2022-12-14T01:10:41.859Z,15.67
2022-12-14T01:13:44.635Z,16.20
2022-12-14T01:16:58.224Z,14.43
2022-12-14T01:20:00.930Z,12.10
2022-12-14T01:23:03.816Z,17.57
2022-12-14T01:26:12.142Z,15.63
2022-12-14T01:29:16.249Z,13.73
2022-12-14T01:32:18.998Z,16.10
2022-12-14T01:35:21.768Z,15.50
2022-12-14T01:38:24.485Z,19.03
2022-12-14T01:41:30.741Z,14.57
2022-12-14T01:44:55.833Z,8.57
2022-12-14T01:48:04.451Z,14.30
2022-12-14T01:51:07.549Z,13.77
2022-12-14T01:54:13.641Z,10.63
2022-12-14T01:57:22.020Z,7.73
2022-12-14T02:00:25.017Z,19.87
2022-12-14T02:03:32.011Z,12.63
2022-12-14T02:06:42.876Z,15.90
2022-12-14T02:09:48.102Z,14.80
2022-12-14T02:12:58.318Z,15.20
2022-12-14T02:16:01.958Z,16.30
2022-12-14T02:19:04.779Z,18.43
2022-12-14T02:22:36.695Z,14.67
2022-12-14T02:26:06.549Z,12.23
2022-12-14T02:29:36.778Z,5.53
2022-12-14T02:32:58.888Z,7.13
2022-12-14T02:36:11.905Z,18.30
2022-12-14T02:39:25.814Z,13.97
2022-12-14T02:42:40.982Z,15.43
2022-12-14T02:45:51.466Z,20.20
2022-12-14T02:49:00.357Z,10.90
2022-12-14T02:52:08.605Z,16.17
2022-12-14T02:55:17.113Z,13.67
2022-12-14T02:58:24.874Z,16.67
2022-12-14T03:01:31.145Z,10.00
2022-12-14T03:04:48.247Z,13.57
2022-12-14T03:07:53.827Z,12.73
2022-12-14T03:10:59.481Z,11.17
2022-12-14T03:14:07.938Z,12.27
2022-12-14T03:17:19.793Z,16.30
2022-12-14T03:20:26.421Z,16.03
2022-12-14T03:23:34.837Z,5.23
2022-12-14T03:26:47.667Z,13.93
2022-12-14T03:29:57.609Z,9.87
2022-12-14T03:33:14.468Z,14.83
2022-12-14T03:36:26.338Z,13.10
2022-12-14T03:39:35.777Z,17.73
2022-12-14T03:42:49.414Z,16.13
2022-12-14T03:45:59.337Z,11.40
2022-12-14T03:49:15.439Z,4.17
2022-12-14T03:52:26.460Z,6.20
2022-12-14T03:55:39.746Z,15.97
2022-12-14T03:58:57.341Z,15.73
2022-12-14T04:02:15.073Z,10.50
2022-12-14T04:05:28.033Z,7.63
2022-12-14T04:08:41.751Z,18.20
2022-12-14T04:12:09.792Z,13.90
2022-12-14T04:15:32.855Z,5.40
2022-12-14T04:19:00.445Z,11.10
2022-12-14T04:22:08.917Z,19.37
2022-12-14T04:25:34.730Z,11.73
2022-12-14T04:29:07.530Z,12.27
2022-12-14T04:32:14.698Z,16.87
2022-12-14T04:35:24.785Z,17.50
2022-12-14T04:38:37.908Z,11.50
2022-12-14T04:41:44.671Z,15.20
2022-12-14T04:44:52.233Z,13.37
2022-12-14T04:48:11.315Z,9.53
2022-12-14T04:51:20.982Z,16.77
2022-12-14T04:54:28.943Z,17.40
2022-12-14T04:57:38.143Z,21.20
2022-12-14T05:00:58.965Z,13.53
2022-12-14T05:04:12.693Z,10.10
2022-12-14T05:07:34.123Z,16.47
2022-12-14T05:10:45.484Z,17.43
2022-12-14T05:13:51.308Z,13.27
2022-12-14T05:16:54.242Z,15.63
2022-12-14T05:19:56.979Z,20.13
2022-12-14T05:22:59.945Z,16.77
2022-12-14T05:26:04.869Z,29.57
2022-12-14T05:29:07.711Z,18.47
2022-12-14T05:32:12.446Z,19.30
2022-12-14T05:35:15.802Z,17.27
2022-12-14T05:38:18.576Z,19.77
2022-12-14T05:41:22.609Z,17.07
2022-12-14T05:44:25.307Z,20.70
2022-12-14T05:47:28.175Z,24.37
2022-12-14T05:50:31.251Z,19.00
2022-12-14T05:53:34.176Z,18.80
2022-12-14T05:56:38.427Z,12.97
2022-12-14T05:59:41.108Z,23.97
2022-12-14T06:02:45.742Z,19.17
2022-12-14T06:05:48.633Z,15.33
2022-12-14T06:08:52.288Z,27.27
2022-12-14T06:11:56.311Z,20.23
2022-12-14T06:14:58.978Z,28.87
2022-12-14T06:18:01.612Z,20.77
2022-12-14T06:21:04.679Z,25.97
2022-12-14T06:24:08.687Z,19.53
2022-12-14T06:27:12.890Z,21.33
2022-12-14T06:30:17.011Z,16.53
2022-12-14T06:33:19.754Z,10.53
2022-12-14T06:36:25.330Z,18.40
2022-12-14T06:39:28.058Z,19.13
2022-12-14T06:42:35.289Z,23.10
2022-12-14T06:45:40.911Z,16.63
2022-12-14T06:48:50.664Z,19.53
2022-12-14T06:51:53.747Z,18.10
2022-12-14T06:54:56.485Z,14.80
2022-12-14T06:58:03.521Z,26.67
2022-12-14T07:01:08.554Z,21.50
2022-12-14T07:04:13.769Z,19.93
2022-12-14T07:07:16.589Z,22.40
2022-12-14T07:10:21.630Z,21.40
2022-12-14T07:13:25.961Z,48.27
2022-12-14T07:16:30.339Z,30.03
2022-12-14T07:19:33.172Z,22.50
2022-12-14T07:22:39.242Z,21.03
2022-12-14T07:25:41.977Z,25.03
2022-12-14T07:28:53.407Z,20.53
2022-12-14T07:31:57.060Z,26.27
2022-12-14T07:34:59.726Z,33.70
2022-12-14T07:38:02.454Z,30.70
2022-12-14T07:41:10.886Z,31.90
2022-12-14T07:44:15.237Z,20.83
2022-12-14T07:47:20.269Z,19.37
2022-12-14T07:50:24.073Z,11.43
2022-12-14T07:53:32.176Z,17.60
2022-12-14T07:56:39.737Z,58.60
2022-12-14T07:59:44.705Z,21.87
2022-12-14T08:02:47.737Z,18.07
2022-12-14T08:05:50.514Z,18.50
2022-12-14T08:08:54.597Z,15.23
2022-12-14T08:12:00.330Z,21.73
2022-12-14T08:15:05.621Z,11.60
2022-12-14T08:18:08.306Z,29.40
2022-12-14T08:21:14.093Z,22.93
2022-12-14T08:24:26.020Z,21.03
2022-12-14T08:27:31.333Z,21.87
2022-12-14T08:30:39.417Z,24.63
2022-12-14T08:33:43.336Z,27.93
2022-12-14T08:36:46.024Z,55.47
2022-12-14T08:39:50.575Z,17.73
2022-12-14T08:42:53.276Z,21.43
2022-12-14T08:45:59.884Z,30.07
2022-12-14T08:49:03.118Z,22.30
2022-12-14T08:52:11.094Z,32.57
2022-12-14T08:55:13.841Z,22.60
2022-12-14T08:58:19.566Z,28.43
2022-12-14T09:01:32.162Z,21.63
2022-12-14T09:04:35.973Z,40.93
2022-12-14T09:07:38.703Z,26.30
2022-12-14T09:10:41.403Z,20.67
2022-12-14T09:13:44.783Z,21.27
2022-12-14T09:16:48.917Z,23.73
2022-12-14T09:19:51.667Z,22.23
2022-12-14T09:22:54.751Z,22.97
2022-12-14T09:26:02.650Z,23.83
2022-12-14T09:29:15.960Z,17.83
2022-12-14T09:32:19.969Z,18.30
2022-12-14T09:35:23.122Z,22.27
2022-12-14T09:38:25.803Z,22.30
2022-12-14T09:41:50.914Z,16.07
2022-12-14T09:45:01.872Z,16.93
2022-12-14T09:48:19.410Z,68.77
2022-12-14T09:51:23.961Z,35.97
2022-12-14T09:54:32.948Z,29.43
2022-12-14T09:57:38.985Z,29.97
2022-12-14T10:00:51.364Z,28.87
2022-12-14T10:04:06.028Z,24.73
2022-12-14T10:07:18.116Z,24.43
2022-12-14T10:10:26.592Z,22.23
2022-12-14T10:13:49.775Z,23.77
2022-12-14T10:17:05.914Z,29.03
2022-12-14T10:20:20.146Z,31.90
2022-12-14T10:23:26.045Z,26.97
2022-12-14T10:26:38.781Z,32.60
2022-12-14T10:29:45.019Z,29.37
2022-12-14T10:32:59.543Z,23.43
2022-12-14T10:36:18.863Z,31.87
2022-12-14T10:39:31.138Z,21.83
2022-12-14T10:42:43.561Z,27.00
2022-12-14T10:46:02.285Z,17.97
2022-12-14T10:49:14.743Z,26.13
2022-12-14T10:52:23.299Z,24.47
2022-12-14T10:55:30.387Z,38.50
2022-12-14T10:58:33.569Z,26.63
2022-12-14T11:01:36.778Z,23.03
2022-12-14T11:04:45.806Z,18.03
2022-12-14T11:07:50.070Z,19.63
2022-12-14T11:11:13.943Z,14.30
2022-12-14T11:14:23.608Z,14.30
2022-12-14T11:17:35.535Z,15.57
2022-12-14T11:20:39.491Z,14.00
2022-12-14T11:23:46.048Z,21.40
2022-12-14T11:26:50.825Z,20.43
2022-12-14T11:29:53.558Z,15.90
2022-12-14T11:32:56.473Z,16.93
2022-12-14T11:36:02.879Z,19.50
2022-12-14T11:39:19.628Z,19.83
2022-12-14T11:42:23.414Z,18.93
2022-12-14T11:45:31.476Z,22.17
2022-12-14T11:48:38.519Z,28.87
2022-12-14T11:51:59.821Z,30.03
2022-12-14T11:55:13.408Z,22.60
2022-12-14T11:58:20.107Z,16.97
2022-12-14T12:01:26.676Z,9.53
2022-12-14T12:04:31.531Z,19.63
2022-12-14T12:07:37.221Z,22.83
2022-12-14T12:10:45.185Z,26.77
2022-12-14T12:13:59.465Z,25.63
2022-12-14T12:17:08.071Z,21.90
2022-12-14T12:20:21.549Z,23.17
2022-12-14T12:23:32.696Z,28.57
2022-12-14T12:26:42.298Z,22.97
2022-12-14T12:29:52.041Z,12.37
2022-12-14T12:33:00.549Z,15.87
2022-12-14T12:36:06.546Z,15.60
2022-12-14T12:39:15.998Z,18.30
2022-12-14T12:42:27.288Z,27.30
2022-12-14T12:45:36.198Z,19.60
2022-12-14T12:48:44.464Z,24.17
2022-12-14T12:51:50.380Z,26.40
2022-12-14T12:55:02.933Z,30.83
2022-12-14T12:58:10.319Z,28.13
2022-12-14T13:01:24.214Z,22.27
2022-12-14T13:04:33.681Z,24.53
2022-12-14T13:07:44.850Z,18.70
2022-12-14T13:14:30.607Z,22.40
2022-12-14T13:17:38.712Z,21.50
2022-12-14T13:20:41.584Z,22.87
2022-12-14T13:23:45.661Z,19.47
2022-12-14T13:27:18.408Z,21.60
2022-12-14T13:30:36.388Z,24.87
2022-12-14T13:34:08.163Z,23.70
2022-12-14T13:37:51.127Z,20.53
2022-12-14T13:41:08.282Z,18.67
2022-12-14T13:44:44.085Z,14.87
2022-12-14T13:47:53.992Z,23.53
2022-12-14T13:51:02.617Z,24.57
2022-12-14T13:54:08.997Z,22.40
2022-12-14T13:57:15.257Z,17.87
2022-12-14T14:00:51.663Z,19.20
2022-12-14T14:04:18.363Z,22.53
2022-12-14T14:07:50.826Z,19.80
2022-12-14T14:11:35.300Z,17.50
2022-12-14T14:14:37.546Z,14.37
2022-12-14T14:17:42.812Z,23.37
2022-12-14T14:20:55.252Z,19.37
2022-12-14T14:24:19.396Z,22.50
2022-12-14T14:27:24.877Z,20.33
2022-12-14T14:30:30.200Z,20.20
2022-12-14T14:33:48.591Z,20.50
2022-12-14T14:36:57.278Z,22.20
2022-12-14T14:40:38.299Z,20.47
2022-12-14T14:43:52.322Z,22.33
2022-12-14T14:46:58.122Z,20.57
2022-12-14T14:50:04.310Z,21.50
2022-12-14T14:53:28.901Z,51.23
2022-12-14T14:56:40.043Z,27.40
2022-12-14T14:59:50.984Z,63.97
2022-12-14T15:03:00.212Z,22.37
2022-12-14T15:06:04.026Z,28.87
2022-12-14T15:09:21.032Z,23.17
2022-12-14T15:12:36.806Z,22.07
2022-12-14T15:15:43.425Z,19.90
2022-12-14T15:18:46.353Z,20.70
2022-12-14T15:21:50.400Z,75.77
2022-12-14T15:24:57.466Z,27.67
2022-12-14T15:28:09.427Z,35.23
2022-12-14T15:31:12.279Z,29.83
2022-12-14T15:34:18.505Z,35.77
2022-12-14T15:37:27.845Z,37.00
2022-12-14T15:40:32.666Z,33.37
2022-12-14T15:43:35.426Z,27.10
2022-12-14T15:46:40.439Z,29.60
2022-12-14T15:49:44.106Z,25.87
2022-12-14T15:52:47.947Z,39.83
2022-12-14T15:56:00.255Z,33.20
2022-12-14T15:59:15.940Z,33.77
2022-12-14T16:02:27.221Z,44.13
2022-12-14T16:05:31.238Z,37.67
2022-12-14T16:08:36.406Z,27.30
2022-12-14T16:11:44.249Z,26.17
2022-12-14T16:14:54.085Z,24.13
2022-12-14T16:18:02.227Z,38.13
2022-12-14T16:21:05.691Z,31.07
2022-12-14T16:24:24.004Z,41.43
2022-12-14T16:27:29.058Z,64.07
2022-12-14T16:30:33.366Z,40.40
2022-12-14T16:33:39.410Z,30.53
2022-12-14T16:37:08.477Z,32.80
2022-12-14T16:40:24.671Z,53.03
2022-12-14T16:43:34.059Z,53.83
2022-12-14T16:46:44.266Z,43.47
2022-12-14T16:49:56.041Z,69.97
2022-12-14T16:53:16.874Z,44.27
2022-12-14T16:56:22.775Z,27.60
2022-12-14T16:59:31.333Z,26.53
2022-12-14T17:02:36.605Z,32.03
2022-12-14T17:05:41.931Z,24.93
2022-12-14T17:08:51.963Z,27.40
2022-12-14T17:12:07.277Z,25.93
2022-12-14T17:15:23.786Z,27.90
2022-12-14T17:18:35.898Z,28.17
2022-12-14T17:21:39.452Z,29.57
2022-12-14T17:24:42.938Z,28.90
2022-12-14T17:27:46.053Z,27.37
2022-12-14T17:30:51.018Z,32.23
2022-12-14T17:33:55.041Z,30.23
2022-12-14T17:36:58.381Z,32.03
2022-12-14T17:40:02.241Z,33.60
2022-12-14T17:43:10.426Z,34.87
2022-12-14T17:46:15.056Z,30.07
2022-12-14T17:49:33.854Z,29.37
2022-12-14T17:52:36.830Z,29.83
2022-12-14T17:55:39.648Z,56.57
2022-12-14T17:58:45.404Z,44.73
2022-12-14T18:01:49.831Z,49.30
2022-12-14T18:04:53.158Z,47.73
2022-12-14T18:07:55.922Z,50.40
2022-12-14T18:11:00.939Z,33.17
2022-12-14T18:14:03.950Z,34.13
2022-12-14T18:17:11.405Z,39.10
2022-12-14T18:20:15.188Z,35.23
2022-12-14T18:23:19.216Z,36.73
2022-12-14T18:26:23.915Z,74.80
2022-12-14T18:29:27.644Z,34.43
2022-12-14T18:32:31.932Z,31.60
2022-12-14T18:35:38.429Z,38.07
2022-12-14T18:38:41.128Z,39.97
2022-12-14T18:41:43.855Z,37.50
2022-12-14T18:44:46.656Z,54.67
2022-12-14T18:47:51.465Z,53.67
2022-12-14T18:50:55.799Z,37.67
2022-12-14T18:54:00.666Z,49.60
2022-12-14T18:57:03.445Z,43.83
2022-12-14T19:00:11.350Z,40.93
2022-12-14T19:03:16.132Z,34.27
2022-12-14T19:06:43.593Z,33.53
2022-12-14T19:09:44.255Z,33.40
2022-12-14T19:12:48.540Z,31.83
2022-12-14T19:15:51.410Z,35.03
2022-12-14T19:18:56.662Z,29.03
2022-12-14T19:21:59.419Z,35.70
2022-12-14T19:25:02.147Z,31.57
2022-12-14T19:28:32.808Z,33.97
2022-12-14T19:31:36.219Z,29.70
2022-12-14T19:34:40.313Z,32.67
2022-12-14T19:37:43.049Z,35.77
2022-12-14T19:40:46.893Z,37.07
2022-12-14T19:43:49.673Z,37.17
2022-12-14T19:46:52.906Z,37.37
2022-12-14T19:49:57.471Z,47.50
2022-12-14T19:53:00.501Z,69.70
2022-12-14T19:56:04.424Z,45.03
2022-12-14T19:59:07.242Z,44.73
2022-12-14T20:02:13.250Z,42.37
2022-12-14T20:05:18.301Z,38.47
2022-12-14T20:08:21.064Z,37.10
2022-12-14T20:11:24.466Z,43.23
2022-12-14T20:14:30.303Z,31.33
2022-12-14T20:17:33.198Z,31.60
2022-12-14T20:20:40.416Z,54.70
2022-12-14T20:23:43.241Z,35.50
2022-12-14T20:26:46.235Z,33.77
2022-12-14T20:29:52.144Z,36.47
2022-12-14T20:32:55.028Z,39.90
2022-12-14T20:35:59.716Z,44.37
2022-12-14T20:39:03.392Z,43.03
2022-12-14T20:42:06.231Z,39.27
2022-12-14T20:45:15.298Z,41.97
2022-12-14T20:48:17.985Z,57.83
2022-12-14T20:51:22.220Z,48.60
2022-12-14T20:54:25.555Z,44.07
2022-12-14T20:57:28.443Z,39.53
2022-12-14T21:00:31.203Z,28.93
2022-12-14T21:03:37.387Z,57.20
2022-12-14T21:06:43.500Z,52.50
2022-12-14T21:09:46.505Z,41.47
2022-12-14T21:12:49.724Z,45.63
2022-12-14T21:15:55.539Z,49.00
2022-12-14T21:18:58.263Z,38.07
2022-12-14T21:22:03.347Z,46.60
2022-12-14T21:25:07.320Z,47.63
2022-12-14T21:28:10.411Z,44.70
2022-12-14T21:31:15.879Z,38.33
2022-12-14T21:34:20.719Z,42.57
2022-12-14T21:37:24.917Z,36.33
2022-12-14T21:40:45.144Z,40.83
2022-12-14T21:43:47.922Z,37.70
2022-12-14T21:46:50.623Z,46.63
2022-12-14T21:49:53.835Z,43.97
2022-12-14T21:52:58.004Z,60.10
2022-12-14T21:56:20.957Z,59.33
2022-12-14T21:59:26.437Z,46.83
2022-12-14T22:02:30.424Z,54.43
2022-12-14T22:05:33.282Z,50.90
2022-12-14T22:08:37.540Z,56.47
2022-12-14T22:11:40.222Z,49.37
2022-12-14T22:14:43.533Z,36.37
2022-12-14T22:17:46.302Z,35.10
2022-12-14T22:20:49.108Z,38.43
2022-12-14T22:23:54.643Z,39.53
2022-12-14T22:26:57.981Z,35.77
2022-12-14T22:30:00.654Z,34.83
2022-12-14T22:33:03.616Z,45.60
2022-12-14T22:36:10.114Z,39.20
2022-12-14T22:39:14.895Z,46.67
2022-12-14T22:42:17.711Z,40.97
2022-12-14T22:45:21.045Z,38.57
2022-12-14T22:48:23.791Z,35.73
2022-12-14T22:51:29.097Z,36.30
2022-12-14T22:54:33.175Z,41.40
2022-12-14T22:57:41.600Z,40.03
2022-12-14T23:00:44.571Z,37.07
2022-12-14T23:03:48.379Z,36.83
2022-12-14T23:06:51.232Z,33.97
2022-12-14T23:10:12.702Z,42.17
2022-12-14T23:13:33.589Z,39.33
2022-12-14T23:16:53.968Z,32.80
2022-12-14T23:20:14.135Z,32.83
2022-12-14T23:23:34.700Z,33.07
2022-12-14T23:26:56.553Z,33.17
2022-12-14T23:30:17.540Z,33.13
2022-12-14T23:33:37.922Z,39.83
2022-12-14T23:36:58.092Z,36.17
2022-12-14T23:40:18.477Z,41.70
2022-12-14T23:43:39.812Z,35.10
2022-12-14T23:47:00.575Z,36.87
2022-12-14T23:50:21.086Z,38.23
2022-12-14T23:53:41.595Z,37.40
2022-12-14T23:57:01.530Z,35.20
